sensor_id;sensor_type;location;lat;lon;timestamp;temperature;humidity
71206;SHT31;58935;54.498;18.544;2023-04-30T00:02:01;7.53;64.04
71206;SHT31;58935;54.498;18.544;2023-04-30T00:04:26;7.50;64.08
71206;SHT31;58935;54.498;18.544;2023-04-30T00:06:52;7.45;63.84
71206;SHT31;58935;54.498;18.544;2023-04-30T00:09:18;7.43;63.84
71206;SHT31;58935;54.498;18.544;2023-04-30T00:11:43;7.39;63.61
71206;SHT31;58935;54.498;18.544;2023-04-30T00:14:09;7.36;63.68
71206;SHT31;58935;54.498;18.544;2023-04-30T00:16:36;7.32;63.52
71206;SHT31;58935;54.498;18.544;2023-04-30T00:19:02;7.30;63.64
71206;SHT31;58935;54.498;18.544;2023-04-30T00:21:27;7.27;63.60
71206;SHT31;58935;54.498;18.544;2023-04-30T00:23:53;7.25;63.63
71206;SHT31;58935;54.498;18.544;2023-04-30T00:26:18;7.22;63.72
71206;SHT31;58935;54.498;18.544;2023-04-30T00:28:44;7.17;63.89
71206;SHT31;58935;54.498;18.544;2023-04-30T00:31:09;7.14;64.00
71206;SHT31;58935;54.498;18.544;2023-04-30T00:33:37;7.08;64.33
71206;SHT31;58935;54.498;18.544;2023-04-30T00:36:02;7.05;64.43
71206;SHT31;58935;54.498;18.544;2023-04-30T00:38:29;7.02;64.38
71206;SHT31;58935;54.498;18.544;2023-04-30T00:40:54;7.00;64.40
71206;SHT31;58935;54.498;18.544;2023-04-30T00:43:22;6.97;64.46
71206;SHT31;58935;54.498;18.544;2023-04-30T00:45:48;6.95;64.49
71206;SHT31;58935;54.498;18.544;2023-04-30T00:48:15;6.91;64.57
71206;SHT31;58935;54.498;18.544;2023-04-30T00:50:43;6.89;64.67
71206;SHT31;58935;54.498;18.544;2023-04-30T00:53:09;6.88;64.72
71206;SHT31;58935;54.498;18.544;2023-04-30T00:55:37;6.86;64.75
71206;SHT31;58935;54.498;18.544;2023-04-30T00:58:06;6.84;64.80
71206;SHT31;58935;54.498;18.544;2023-04-30T01:00:32;6.81;64.91
71206;SHT31;58935;54.498;18.544;2023-04-30T01:02:59;6.79;64.97
71206;SHT31;58935;54.498;18.544;2023-04-30T01:05:27;6.76;65.17
71206;SHT31;58935;54.498;18.544;2023-04-30T01:07:53;6.74;65.29
71206;SHT31;58935;54.498;18.544;2023-04-30T01:10:21;6.72;65.35
71206;SHT31;58935;54.498;18.544;2023-04-30T01:12:59;6.70;65.55
71206;SHT31;58935;54.498;18.544;2023-04-30T01:15:40;6.67;65.68
71206;SHT31;58935;54.498;18.544;2023-04-30T01:18:17;6.65;65.76
71206;SHT31;58935;54.498;18.544;2023-04-30T01:20:53;6.63;65.83
71206;SHT31;58935;54.498;18.544;2023-04-30T01:27:19;6.55;66.22
71206;SHT31;58935;54.498;18.544;2023-04-30T01:29:40;6.52;66.39
71206;SHT31;58935;54.498;18.544;2023-04-30T01:32:09;6.50;66.52
71206;SHT31;58935;54.498;18.544;2023-04-30T01:34:35;6.48;66.76
71206;SHT31;58935;54.498;18.544;2023-04-30T01:40:03;6.42;67.06
71206;SHT31;58935;54.498;18.544;2023-04-30T01:48:45;6.37;67.53
71206;SHT31;58935;54.498;18.544;2023-04-30T01:53:45;6.34;68.05
71206;SHT31;58935;54.498;18.544;2023-04-30T01:56:14;6.32;68.25
71206;SHT31;58935;54.498;18.544;2023-04-30T01:58:50;6.29;68.43
71206;SHT31;58935;54.498;18.544;2023-04-30T02:03:49;6.28;68.56
71206;SHT31;58935;54.498;18.544;2023-04-30T02:06:17;6.27;68.58
71206;SHT31;58935;54.498;18.544;2023-04-30T02:08:43;6.26;68.79
71206;SHT31;58935;54.498;18.544;2023-04-30T02:11:08;6.23;68.79
71206;SHT31;58935;54.498;18.544;2023-04-30T02:13:39;6.22;68.98
71206;SHT31;58935;54.498;18.544;2023-04-30T02:16:06;6.20;69.08
71206;SHT31;58935;54.498;18.544;2023-04-30T02:18:32;6.17;69.27
71206;SHT31;58935;54.498;18.544;2023-04-30T02:20:57;6.16;69.43
71206;SHT31;58935;54.498;18.544;2023-04-30T02:23:23;6.14;69.52
71206;SHT31;58935;54.498;18.544;2023-04-30T02:25:48;6.14;69.46
71206;SHT31;58935;54.498;18.544;2023-04-30T02:28:14;6.12;69.63
71206;SHT31;58935;54.498;18.544;2023-04-30T02:30:39;6.12;69.66
71206;SHT31;58935;54.498;18.544;2023-04-30T02:33:05;6.11;69.81
71206;SHT31;58935;54.498;18.544;2023-04-30T02:35:31;6.09;69.82
71206;SHT31;58935;54.498;18.544;2023-04-30T02:37:56;6.08;69.83
71206;SHT31;58935;54.498;18.544;2023-04-30T02:40:24;6.07;69.91
71206;SHT31;58935;54.498;18.544;2023-04-30T02:42:50;6.06;69.95
71206;SHT31;58935;54.498;18.544;2023-04-30T02:45:18;6.04;70.11
71206;SHT31;58935;54.498;18.544;2023-04-30T02:47:43;6.02;70.26
71206;SHT31;58935;54.498;18.544;2023-04-30T02:50:08;6.00;70.44
71206;SHT31;58935;54.498;18.544;2023-04-30T02:52:34;5.99;70.66
71206;SHT31;58935;54.498;18.544;2023-04-30T02:55:00;5.97;70.80
71206;SHT31;58935;54.498;18.544;2023-04-30T02:57:26;5.95;70.74
71206;SHT31;58935;54.498;18.544;2023-04-30T02:59:51;5.94;70.76
71206;SHT31;58935;54.498;18.544;2023-04-30T03:02:16;5.93;70.80
71206;SHT31;58935;54.498;18.544;2023-04-30T03:04:48;5.93;70.95
71206;SHT31;58935;54.498;18.544;2023-04-30T03:07:14;5.92;71.08
71206;SHT31;58935;54.498;18.544;2023-04-30T03:09:40;5.90;71.14
71206;SHT31;58935;54.498;18.544;2023-04-30T03:12:05;5.89;71.22
71206;SHT31;58935;54.498;18.544;2023-04-30T03:14:30;5.88;71.36
71206;SHT31;58935;54.498;18.544;2023-04-30T03:16:56;5.87;71.50
71206;SHT31;58935;54.498;18.544;2023-04-30T03:19:22;5.86;71.62
71206;SHT31;58935;54.498;18.544;2023-04-30T03:21:50;5.87;71.69
71206;SHT31;58935;54.498;18.544;2023-04-30T03:24:17;5.87;71.86
71206;SHT31;58935;54.498;18.544;2023-04-30T03:26:45;5.87;71.99
71206;SHT31;58935;54.498;18.544;2023-04-30T03:30:25;5.87;72.15
71206;SHT31;58935;54.498;18.544;2023-04-30T03:32:51;5.86;72.23
71206;SHT31;58935;54.498;18.544;2023-04-30T03:35:16;5.87;72.32
71206;SHT31;58935;54.498;18.544;2023-04-30T03:37:43;5.89;72.33
71206;SHT31;58935;54.498;18.544;2023-04-30T03:40:08;5.88;72.28
71206;SHT31;58935;54.498;18.544;2023-04-30T03:42:37;5.90;72.28
71206;SHT31;58935;54.498;18.544;2023-04-30T03:45:03;5.91;72.38
71206;SHT31;58935;54.498;18.544;2023-04-30T03:47:29;5.94;72.43
71206;SHT31;58935;54.498;18.544;2023-04-30T03:49:54;5.94;72.58
71206;SHT31;58935;54.498;18.544;2023-04-30T03:52:20;5.95;72.55
71206;SHT31;58935;54.498;18.544;2023-04-30T03:54:46;5.99;72.41
71206;SHT31;58935;54.498;18.544;2023-04-30T03:57:12;6.00;72.52
71206;SHT31;58935;54.498;18.544;2023-04-30T03:59:38;6.03;72.55
71206;SHT31;58935;54.498;18.544;2023-04-30T04:02:05;6.05;72.91
71206;SHT31;58935;54.498;18.544;2023-04-30T04:04:31;6.06;72.84
71206;SHT31;58935;54.498;18.544;2023-04-30T04:06:58;6.09;72.84
71206;SHT31;58935;54.498;18.544;2023-04-30T04:09:24;6.12;72.85
71206;SHT31;58935;54.498;18.544;2023-04-30T04:11:50;6.15;72.73
71206;SHT31;58935;54.498;18.544;2023-04-30T04:14:15;6.18;72.73
71206;SHT31;58935;54.498;18.544;2023-04-30T04:16:41;6.21;72.76
71206;SHT31;58935;54.498;18.544;2023-04-30T04:19:07;6.25;72.80
71206;SHT31;58935;54.498;18.544;2023-04-30T04:21:33;6.28;72.82
71206;SHT31;58935;54.498;18.544;2023-04-30T04:24:00;6.33;72.87
71206;SHT31;58935;54.498;18.544;2023-04-30T04:26:32;6.38;72.65
71206;SHT31;58935;54.498;18.544;2023-04-30T04:29:00;6.41;72.71
71206;SHT31;58935;54.498;18.544;2023-04-30T04:31:30;6.45;72.73
71206;SHT31;58935;54.498;18.544;2023-04-30T04:33:57;6.49;72.62
71206;SHT31;58935;54.498;18.544;2023-04-30T04:36:26;6.54;72.52
71206;SHT31;58935;54.498;18.544;2023-04-30T04:38:53;6.58;72.50
71206;SHT31;58935;54.498;18.544;2023-04-30T04:41:21;6.64;72.43
71206;SHT31;58935;54.498;18.544;2023-04-30T04:43:50;6.70;72.39
71206;SHT31;58935;54.498;18.544;2023-04-30T04:46:16;6.73;72.38
71206;SHT31;58935;54.498;18.544;2023-04-30T04:48:45;6.79;72.29
71206;SHT31;58935;54.498;18.544;2023-04-30T04:51:11;6.83;72.19
71206;SHT31;58935;54.498;18.544;2023-04-30T04:53:37;6.86;72.11
71206;SHT31;58935;54.498;18.544;2023-04-30T04:56:03;6.90;72.01
71206;SHT31;58935;54.498;18.544;2023-04-30T04:58:29;6.95;71.99
71206;SHT31;58935;54.498;18.544;2023-04-30T05:00:55;6.99;71.86
71206;SHT31;58935;54.498;18.544;2023-04-30T05:03:21;7.05;71.80
71206;SHT31;58935;54.498;18.544;2023-04-30T05:05:47;7.06;71.80
71206;SHT31;58935;54.498;18.544;2023-04-30T05:08:12;7.10;71.80
71206;SHT31;58935;54.498;18.544;2023-04-30T05:10:40;7.14;71.67
71206;SHT31;58935;54.498;18.544;2023-04-30T05:13:06;7.17;71.62
71206;SHT31;58935;54.498;18.544;2023-04-30T05:15:31;7.23;71.47
71206;SHT31;58935;54.498;18.544;2023-04-30T05:17:57;7.25;71.16
71206;SHT31;58935;54.498;18.544;2023-04-30T05:20:22;7.25;71.20
71206;SHT31;58935;54.498;18.544;2023-04-30T05:22:48;7.31;71.20
71206;SHT31;58935;54.498;18.544;2023-04-30T05:25:13;7.36;71.04
71206;SHT31;58935;54.498;18.544;2023-04-30T05:27:39;7.42;70.82
71206;SHT31;58935;54.498;18.544;2023-04-30T05:30:05;7.47;70.67
71206;SHT31;58935;54.498;18.544;2023-04-30T05:32:31;7.52;70.27
71206;SHT31;58935;54.498;18.544;2023-04-30T05:35:00;7.55;70.00
71206;SHT31;58935;54.498;18.544;2023-04-30T05:37:26;7.57;69.93
71206;SHT31;58935;54.498;18.544;2023-04-30T05:39:53;7.58;69.96
71206;SHT31;58935;54.498;18.544;2023-04-30T05:42:19;7.63;69.94
71206;SHT31;58935;54.498;18.544;2023-04-30T05:44:45;7.68;69.61
71206;SHT31;58935;54.498;18.544;2023-04-30T05:47:12;7.71;69.53
71206;SHT31;58935;54.498;18.544;2023-04-30T05:49:38;7.74;69.41
71206;SHT31;58935;54.498;18.544;2023-04-30T05:52:03;7.77;69.18
71206;SHT31;58935;54.498;18.544;2023-04-30T05:54:30;7.78;69.22
71206;SHT31;58935;54.498;18.544;2023-04-30T05:56:56;7.84;69.08
71206;SHT31;58935;54.498;18.544;2023-04-30T05:59:21;7.89;68.93
71206;SHT31;58935;54.498;18.544;2023-04-30T06:01:50;7.95;68.85
71206;SHT31;58935;54.498;18.544;2023-04-30T06:04:16;8.02;68.57
71206;SHT31;58935;54.498;18.544;2023-04-30T06:06:42;8.08;68.28
71206;SHT31;58935;54.498;18.544;2023-04-30T06:09:07;8.13;67.82
71206;SHT31;58935;54.498;18.544;2023-04-30T06:11:34;8.14;67.56
71206;SHT31;58935;54.498;18.544;2023-04-30T06:14:01;8.18;67.47
71206;SHT31;58935;54.498;18.544;2023-04-30T06:16:28;8.19;67.48
71206;SHT31;58935;54.498;18.544;2023-04-30T06:18:56;8.21;67.35
71206;SHT31;58935;54.498;18.544;2023-04-30T06:21:24;8.25;67.44
71206;SHT31;58935;54.498;18.544;2023-04-30T06:23:50;8.32;67.34
71206;SHT31;58935;54.498;18.544;2023-04-30T06:26:17;8.38;67.00
71206;SHT31;58935;54.498;18.544;2023-04-30T06:28:44;8.43;66.89
71206;SHT31;58935;54.498;18.544;2023-04-30T06:31:10;8.47;66.60
71206;SHT31;58935;54.498;18.544;2023-04-30T06:33:36;8.53;66.30
71206;SHT31;58935;54.498;18.544;2023-04-30T06:36:02;8.55;65.53
71206;SHT31;58935;54.498;18.544;2023-04-30T06:38:30;8.52;64.99
71206;SHT31;58935;54.498;18.544;2023-04-30T06:40:55;8.53;64.94
71206;SHT31;58935;54.498;18.544;2023-04-30T06:43:21;8.57;64.78
71206;SHT31;58935;54.498;18.544;2023-04-30T06:45:48;8.63;65.16
71206;SHT31;58935;54.498;18.544;2023-04-30T06:48:16;8.69;64.99
71206;SHT31;58935;54.498;18.544;2023-04-30T06:50:41;8.79;64.97
71206;SHT31;58935;54.498;18.544;2023-04-30T06:53:10;8.86;64.33
71206;SHT31;58935;54.498;18.544;2023-04-30T06:55:36;8.88;63.63
71206;SHT31;58935;54.498;18.544;2023-04-30T06:58:02;8.88;63.30
71206;SHT31;58935;54.498;18.544;2023-04-30T07:00:30;8.89;62.00
71206;SHT31;58935;54.498;18.544;2023-04-30T07:02:56;8.94;62.29
71206;SHT31;58935;54.498;18.544;2023-04-30T07:05:25;9.02;61.74
71206;SHT31;58935;54.498;18.544;2023-04-30T07:07:50;9.08;61.62
71206;SHT31;58935;54.498;18.544;2023-04-30T07:10:19;9.19;61.64
71206;SHT31;58935;54.498;18.544;2023-04-30T07:12:44;9.27;60.81
71206;SHT31;58935;54.498;18.544;2023-04-30T07:15:10;9.29;60.44
71206;SHT31;58935;54.498;18.544;2023-04-30T07:17:36;9.30;60.84
71206;SHT31;58935;54.498;18.544;2023-04-30T07:20:06;9.34;59.76
71206;SHT31;58935;54.498;18.544;2023-04-30T07:22:33;9.38;58.21
71206;SHT31;58935;54.498;18.544;2023-04-30T07:24:59;9.45;57.57
71206;SHT31;58935;54.498;18.544;2023-04-30T07:27:25;9.51;57.34
71206;SHT31;58935;54.498;18.544;2023-04-30T07:29:52;9.55;57.14
71206;SHT31;58935;54.498;18.544;2023-04-30T07:32:21;9.62;57.64
71206;SHT31;58935;54.498;18.544;2023-04-30T07:34:49;9.70;56.47
71206;SHT31;58935;54.498;18.544;2023-04-30T07:37:15;9.67;55.61
71206;SHT31;58935;54.498;18.544;2023-04-30T07:39:41;9.71;55.70
71206;SHT31;58935;54.498;18.544;2023-04-30T07:42:07;9.77;55.51
71206;SHT31;58935;54.498;18.544;2023-04-30T07:44:32;9.84;55.84
71206;SHT31;58935;54.498;18.544;2023-04-30T07:46:58;9.91;54.82
71206;SHT31;58935;54.498;18.544;2023-04-30T07:49:24;9.96;54.84
71206;SHT31;58935;54.498;18.544;2023-04-30T07:51:50;9.98;54.63
71206;SHT31;58935;54.498;18.544;2023-04-30T07:54:17;10.01;53.81
71206;SHT31;58935;54.498;18.544;2023-04-30T07:56:43;10.04;53.06
71206;SHT31;58935;54.498;18.544;2023-04-30T07:59:08;10.05;52.56
71206;SHT31;58935;54.498;18.544;2023-04-30T08:01:34;10.05;51.94
71206;SHT31;58935;54.498;18.544;2023-04-30T08:04:00;10.08;52.21
71206;SHT31;58935;54.498;18.544;2023-04-30T08:06:28;10.18;51.65
71206;SHT31;58935;54.498;18.544;2023-04-30T08:08:54;10.24;51.21
71206;SHT31;58935;54.498;18.544;2023-04-30T08:11:19;10.33;51.31
71206;SHT31;58935;54.498;18.544;2023-04-30T08:13:45;10.41;50.16
71206;SHT31;58935;54.498;18.544;2023-04-30T08:16:11;10.49;50.06
71206;SHT31;58935;54.498;18.544;2023-04-30T08:18:36;10.54;49.32
71206;SHT31;58935;54.498;18.544;2023-04-30T08:21:04;10.57;49.34
71206;SHT31;58935;54.498;18.544;2023-04-30T08:23:30;10.71;48.77
71206;SHT31;58935;54.498;18.544;2023-04-30T08:25:57;10.83;47.20
71206;SHT31;58935;54.498;18.544;2023-04-30T08:28:22;10.85;45.73
71206;SHT31;58935;54.498;18.544;2023-04-30T08:30:48;10.83;46.46
71206;SHT31;58935;54.498;18.544;2023-04-30T08:33:13;10.78;46.08
71206;SHT31;58935;54.498;18.544;2023-04-30T08:35:41;10.70;45.86
71206;SHT31;58935;54.498;18.544;2023-04-30T08:38:09;10.64;46.70
71206;SHT31;58935;54.498;18.544;2023-04-30T08:40:35;10.64;47.02
71206;SHT31;58935;54.498;18.544;2023-04-30T08:48:23;10.80;45.91
71206;SHT31;58935;54.498;18.544;2023-04-30T08:50:49;10.82;44.86
71206;SHT31;58935;54.498;18.544;2023-04-30T08:53:15;10.82;45.19
71206;SHT31;58935;54.498;18.544;2023-04-30T08:55:46;10.81;45.04
71206;SHT31;58935;54.498;18.544;2023-04-30T08:58:14;10.80;44.88
71206;SHT31;58935;54.498;18.544;2023-04-30T09:00:40;10.82;45.49
71206;SHT31;58935;54.498;18.544;2023-04-30T09:03:06;10.90;44.72
71206;SHT31;58935;54.498;18.544;2023-04-30T09:05:35;11.02;44.72
71206;SHT31;58935;54.498;18.544;2023-04-30T09:08:05;11.15;44.67
71206;SHT31;58935;54.498;18.544;2023-04-30T09:10:32;11.29;45.43
71206;SHT31;58935;54.498;18.544;2023-04-30T09:13:01;11.40;45.50
71206;SHT31;58935;54.498;18.544;2023-04-30T09:15:31;11.44;43.50
71206;SHT31;58935;54.498;18.544;2023-04-30T09:20:34;11.31;43.71
71206;SHT31;58935;54.498;18.544;2023-04-30T09:25:37;11.46;44.39
71206;SHT31;58935;54.498;18.544;2023-04-30T09:28:07;11.59;45.00
71206;SHT31;58935;54.498;18.544;2023-04-30T09:30:35;11.65;43.36
71206;SHT31;58935;54.498;18.544;2023-04-30T09:33:02;11.57;43.21
71206;SHT31;58935;54.498;18.544;2023-04-30T09:35:31;11.57;43.52
71206;SHT31;58935;54.498;18.544;2023-04-30T09:38:00;11.54;43.24
71206;SHT31;58935;54.498;18.544;2023-04-30T09:43:01;11.19;43.30
71206;SHT31;58935;54.498;18.544;2023-04-30T09:48:02;11.02;42.78
71206;SHT31;58935;54.498;18.544;2023-04-30T09:50:35;11.07;42.18
71206;SHT31;58935;54.498;18.544;2023-04-30T09:53:05;11.16;41.68
71206;SHT31;58935;54.498;18.544;2023-04-30T09:55:34;11.28;42.09
71206;SHT31;58935;54.498;18.544;2023-04-30T09:58:04;11.32;42.52
71206;SHT31;58935;54.498;18.544;2023-04-30T10:00:33;11.44;41.90
71206;SHT31;58935;54.498;18.544;2023-04-30T10:03:03;11.53;41.26
71206;SHT31;58935;54.498;18.544;2023-04-30T10:05:36;11.61;41.11
71206;SHT31;58935;54.498;18.544;2023-04-30T10:08:06;11.72;41.28
71206;SHT31;58935;54.498;18.544;2023-04-30T10:10:46;11.86;40.84
71206;SHT31;58935;54.498;18.544;2023-04-30T10:13:18;11.94;40.16
71206;SHT31;58935;54.498;18.544;2023-04-30T10:15:47;11.96;39.39
71206;SHT31;58935;54.498;18.544;2023-04-30T10:18:21;11.93;39.41
71206;SHT31;58935;54.498;18.544;2023-04-30T10:20:53;12.00;40.04
71206;SHT31;58935;54.498;18.544;2023-04-30T10:23:20;12.08;38.01
71206;SHT31;58935;54.498;18.544;2023-04-30T10:25:52;12.12;38.01
71206;SHT31;58935;54.498;18.544;2023-04-30T10:28:19;12.14;37.95
71206;SHT31;58935;54.498;18.544;2023-04-30T10:30:46;12.06;38.22
71206;SHT31;58935;54.498;18.544;2023-04-30T10:33:18;12.08;37.11
71206;SHT31;58935;54.498;18.544;2023-04-30T10:35:56;12.03;38.03
71206;SHT31;58935;54.498;18.544;2023-04-30T10:38:27;12.05;38.91
71206;SHT31;58935;54.498;18.544;2023-04-30T10:40:55;12.13;39.10
71206;SHT31;58935;54.498;18.544;2023-04-30T10:43:23;12.21;38.60
71206;SHT31;58935;54.498;18.544;2023-04-30T10:45:49;12.24;38.88
71206;SHT31;58935;54.498;18.544;2023-04-30T10:48:16;12.28;38.43
71206;SHT31;58935;54.498;18.544;2023-04-30T10:50:49;12.26;36.96
71206;SHT31;58935;54.498;18.544;2023-04-30T10:53:20;12.22;36.93
71206;SHT31;58935;54.498;18.544;2023-04-30T10:55:47;12.19;37.53
71206;SHT31;58935;54.498;18.544;2023-04-30T10:58:21;12.09;38.37
71206;SHT31;58935;54.498;18.544;2023-04-30T11:00:50;12.06;38.39
71206;SHT31;58935;54.498;18.544;2023-04-30T11:03:29;12.00;37.76
71206;SHT31;58935;54.498;18.544;2023-04-30T11:05:59;12.01;37.00
71206;SHT31;58935;54.498;18.544;2023-04-30T11:08:35;12.04;37.77
71206;SHT31;58935;54.498;18.544;2023-04-30T11:11:03;12.11;37.93
71206;SHT31;58935;54.498;18.544;2023-04-30T11:16:03;12.17;37.44
71206;SHT31;58935;54.498;18.544;2023-04-30T11:18:29;12.14;36.21
71206;SHT31;58935;54.498;18.544;2023-04-30T11:20:56;12.15;36.33
71206;SHT31;58935;54.498;18.544;2023-04-30T11:23:22;12.23;37.68
71206;SHT31;58935;54.498;18.544;2023-04-30T11:25:52;12.32;37.45
71206;SHT31;58935;54.498;18.544;2023-04-30T11:28:23;12.23;37.43
71206;SHT31;58935;54.498;18.544;2023-04-30T11:30:51;12.15;37.02
71206;SHT31;58935;54.498;18.544;2023-04-30T11:33:23;12.14;37.42
71206;SHT31;58935;54.498;18.544;2023-04-30T11:35:51;12.27;37.90
71206;SHT31;58935;54.498;18.544;2023-04-30T11:38:20;12.39;37.83
71206;SHT31;58935;54.498;18.544;2023-04-30T11:40:55;12.44;37.93
71206;SHT31;58935;54.498;18.544;2023-04-30T11:43:23;12.44;37.07
71206;SHT31;58935;54.498;18.544;2023-04-30T11:48:35;12.38;36.82
71206;SHT31;58935;54.498;18.544;2023-04-30T11:51:14;12.43;36.27
71206;SHT31;58935;54.498;18.544;2023-04-30T11:53:43;12.46;36.54
71206;SHT31;58935;54.498;18.544;2023-04-30T11:56:13;12.56;37.21
71206;SHT31;58935;54.498;18.544;2023-04-30T11:58:41;12.68;37.35
71206;SHT31;58935;54.498;18.544;2023-04-30T12:01:07;12.80;35.27
71206;SHT31;58935;54.498;18.544;2023-04-30T12:06:08;12.85;36.19
71206;SHT31;58935;54.498;18.544;2023-04-30T12:08:47;12.90;36.42
71206;SHT31;58935;54.498;18.544;2023-04-30T12:16:17;12.94;36.18
71206;SHT31;58935;54.498;18.544;2023-04-30T12:18:45;12.90;36.12
71206;SHT31;58935;54.498;18.544;2023-04-30T12:21:12;12.80;36.37
71206;SHT31;58935;54.498;18.544;2023-04-30T12:23:39;12.75;36.80
71206;SHT31;58935;54.498;18.544;2023-04-30T12:26:06;12.80;37.58
71206;SHT31;58935;54.498;18.544;2023-04-30T12:28:36;12.99;37.32
71206;SHT31;58935;54.498;18.544;2023-04-30T12:31:01;12.96;37.20
71206;SHT31;58935;54.498;18.544;2023-04-30T12:33:30;12.87;37.54
71206;SHT31;58935;54.498;18.544;2023-04-30T12:35:56;12.82;37.48
71206;SHT31;58935;54.498;18.544;2023-04-30T12:38:23;12.84;37.74
71206;SHT31;58935;54.498;18.544;2023-04-30T12:40:49;12.69;37.38
71206;SHT31;58935;54.498;18.544;2023-04-30T12:43:15;12.59;37.06
71206;SHT31;58935;54.498;18.544;2023-04-30T12:45:43;12.62;36.96
71206;SHT31;58935;54.498;18.544;2023-04-30T12:48:15;12.78;36.59
71206;SHT31;58935;54.498;18.544;2023-04-30T12:50:46;12.89;36.29
71206;SHT31;58935;54.498;18.544;2023-04-30T12:53:18;12.95;36.05
71206;SHT31;58935;54.498;18.544;2023-04-30T12:58:20;13.08;36.73
71206;SHT31;58935;54.498;18.544;2023-04-30T13:00:48;13.06;36.99
71206;SHT31;58935;54.498;18.544;2023-04-30T13:03:16;12.98;37.33
71206;SHT31;58935;54.498;18.544;2023-04-30T13:05:48;12.74;37.34
71206;SHT31;58935;54.498;18.544;2023-04-30T13:08:17;12.52;37.88
71206;SHT31;58935;54.498;18.544;2023-04-30T13:10:44;12.44;37.92
71206;SHT31;58935;54.498;18.544;2023-04-30T13:13:14;12.37;38.29
71206;SHT31;58935;54.498;18.544;2023-04-30T13:15:41;12.22;38.71
71206;SHT31;58935;54.498;18.544;2023-04-30T13:18:08;12.19;39.44
71206;SHT31;58935;54.498;18.544;2023-04-30T13:20:39;12.27;39.20
71206;SHT31;58935;54.498;18.544;2023-04-30T13:23:10;12.27;39.31
71206;SHT31;58935;54.498;18.544;2023-04-30T13:25:37;12.34;39.52
71206;SHT31;58935;54.498;18.544;2023-04-30T13:28:07;12.38;38.18
71206;SHT31;58935;54.498;18.544;2023-04-30T13:30:33;12.45;37.71
71206;SHT31;58935;54.498;18.544;2023-04-30T13:32:59;12.54;37.54
71206;SHT31;58935;54.498;18.544;2023-04-30T13:35:28;12.70;37.77
71206;SHT31;58935;54.498;18.544;2023-04-30T13:37:57;12.90;37.89
71206;SHT31;58935;54.498;18.544;2023-04-30T13:40:24;13.09;37.79
71206;SHT31;58935;54.498;18.544;2023-04-30T13:42:49;13.23;37.88
71206;SHT31;58935;54.498;18.544;2023-04-30T13:45:17;13.27;37.93
71206;SHT31;58935;54.498;18.544;2023-04-30T13:47:45;13.21;38.19
71206;SHT31;58935;54.498;18.544;2023-04-30T13:50:11;13.02;39.05
71206;SHT31;58935;54.498;18.544;2023-04-30T13:52:37;12.79;39.29
71206;SHT31;58935;54.498;18.544;2023-04-30T13:55:05;12.64;39.66
71206;SHT31;58935;54.498;18.544;2023-04-30T13:57:32;12.66;39.81
71206;SHT31;58935;54.498;18.544;2023-04-30T13:59:58;12.76;39.51
71206;SHT31;58935;54.498;18.544;2023-04-30T14:02:26;12.82;39.00
71206;SHT31;58935;54.498;18.544;2023-04-30T14:04:52;12.79;38.62
71206;SHT31;58935;54.498;18.544;2023-04-30T14:07:19;12.96;39.11
71206;SHT31;58935;54.498;18.544;2023-04-30T14:09:47;13.06;39.06
71206;SHT31;58935;54.498;18.544;2023-04-30T14:12:12;12.99;38.87
71206;SHT31;58935;54.498;18.544;2023-04-30T14:14:38;12.80;39.32
71206;SHT31;58935;54.498;18.544;2023-04-30T14:17:06;12.73;39.64
71206;SHT31;58935;54.498;18.544;2023-04-30T14:19:34;12.75;40.05
71206;SHT31;58935;54.498;18.544;2023-04-30T14:21:59;12.85;39.91
71206;SHT31;58935;54.498;18.544;2023-04-30T14:24:25;12.84;39.68
71206;SHT31;58935;54.498;18.544;2023-04-30T14:26:52;12.73;39.90
71206;SHT31;58935;54.498;18.544;2023-04-30T14:29:18;12.69;40.18
71206;SHT31;58935;54.498;18.544;2023-04-30T14:35:24;12.72;40.40
71206;SHT31;58935;54.498;18.544;2023-04-30T14:37:51;12.65;40.38
71206;SHT31;58935;54.498;18.544;2023-04-30T14:40:16;12.59;40.78
71206;SHT31;58935;54.498;18.544;2023-04-30T14:42:42;12.61;40.86
71206;SHT31;58935;54.498;18.544;2023-04-30T14:45:07;12.49;40.88
71206;SHT31;58935;54.498;18.544;2023-04-30T14:47:34;12.46;41.43
71206;SHT31;58935;54.498;18.544;2023-04-30T14:50:09;12.48;41.72
71206;SHT31;58935;54.498;18.544;2023-04-30T14:52:35;12.53;41.40
71206;SHT31;58935;54.498;18.544;2023-04-30T14:55:01;12.44;41.22
71206;SHT31;58935;54.498;18.544;2023-04-30T14:57:26;12.37;40.98
71206;SHT31;58935;54.498;18.544;2023-04-30T14:59:52;12.24;41.12
71206;SHT31;58935;54.498;18.544;2023-04-30T15:02:23;12.23;41.49
71206;SHT31;58935;54.498;18.544;2023-04-30T15:04:53;12.34;41.65
71206;SHT31;58935;54.498;18.544;2023-04-30T15:07:21;12.45;41.76
71206;SHT31;58935;54.498;18.544;2023-04-30T15:09:47;12.52;40.95
71206;SHT31;58935;54.498;18.544;2023-04-30T15:12:15;12.60;40.33
71206;SHT31;58935;54.498;18.544;2023-04-30T15:14:41;12.64;39.36
71206;SHT31;58935;54.498;18.544;2023-04-30T15:17:09;12.60;38.48
71206;SHT31;58935;54.498;18.544;2023-04-30T15:19:35;12.52;38.68
71206;SHT31;58935;54.498;18.544;2023-04-30T15:22:01;12.44;38.81
71206;SHT31;58935;54.498;18.544;2023-04-30T15:24:27;12.37;39.37
71206;SHT31;58935;54.498;18.544;2023-04-30T15:26:55;12.34;40.01
71206;SHT31;58935;54.498;18.544;2023-04-30T15:29:38;12.35;40.15
71206;SHT31;58935;54.498;18.544;2023-04-30T15:32:07;12.38;40.53
71206;SHT31;58935;54.498;18.544;2023-04-30T15:34:33;12.46;40.36
71206;SHT31;58935;54.498;18.544;2023-04-30T15:36:58;12.57;40.13
71206;SHT31;58935;54.498;18.544;2023-04-30T15:39:26;12.60;39.62
71206;SHT31;58935;54.498;18.544;2023-04-30T15:41:51;12.49;40.17
71206;SHT31;58935;54.498;18.544;2023-04-30T15:44:17;12.57;40.55
71206;SHT31;58935;54.498;18.544;2023-04-30T15:46:45;12.63;39.91
71206;SHT31;58935;54.498;18.544;2023-04-30T15:49:11;12.57;40.12
71206;SHT31;58935;54.498;18.544;2023-04-30T15:51:42;12.53;39.97
71206;SHT31;58935;54.498;18.544;2023-04-30T15:54:09;12.48;40.18
71206;SHT31;58935;54.498;18.544;2023-04-30T15:56:37;12.55;40.48
71206;SHT31;58935;54.498;18.544;2023-04-30T15:59:03;12.72;40.07
71206;SHT31;58935;54.498;18.544;2023-04-30T16:01:30;12.83;39.03
71206;SHT31;58935;54.498;18.544;2023-04-30T16:03:56;12.86;36.23
71206;SHT31;58935;54.498;18.544;2023-04-30T16:06:25;12.89;35.75
71206;SHT31;58935;54.498;18.544;2023-04-30T16:08:55;12.82;35.78
71206;SHT31;58935;54.498;18.544;2023-04-30T16:11:20;12.76;35.86
71206;SHT31;58935;54.498;18.544;2023-04-30T16:13:48;12.73;35.66
71206;SHT31;58935;54.498;18.544;2023-04-30T16:16:16;12.65;35.17
71206;SHT31;58935;54.498;18.544;2023-04-30T16:18:41;12.61;35.35